FGTJP LFBT-LFMD
Flight info
| Callsign | FGTJP |
|---|---|
| Flight time | 0h 55m |
| Altitude | 27000 |
| Route | TOU DCT FINOT DCT AFRIC DCT BRUSC DCT GIGNA DCT FJR DCT MARRI DCT SALIN DCT MTG DCT ABLAK |
| Aircraft | C700/M-SBDGHM1RWXY/LB2 |
Departure
| Time | 2026-05-04 09:39 |
|---|---|
| Airport | Tarbes-Lourdes-Pyrénées Airport (LFBT) |
Arrival
| Time | 2026-05-04 10:34 |
|---|---|
| Airport | Cannes Mandelieu Airport (LFMD) |
| Time | Latitude | Longitude | Altitude | Speed | Heading |
|---|---|---|---|---|---|
| 2026-05-04 09:35 | 43.18520 | -0.00156 | 1192 ft | 0 kts | 283° |
| 2026-05-04 09:37 | 43.18509 | -0.00305 | 1194 ft | 6 kts | 210° |
| 2026-05-04 09:37 | 43.18489 | -0.00317 | 1195 ft | 0 kts | 203° |
| 2026-05-04 09:38 | 43.18488 | -0.00318 | 1195 ft | 1 kts | 203° |
| 2026-05-04 09:38 | 43.18444 | -0.00342 | 1196 ft | 17 kts | 200° |
| 2026-05-04 09:38 | 43.18151 | -0.00488 | 1208 ft | 88 kts | 200° |
| 2026-05-04 09:38 | 43.17268 | -0.00945 | 1365 ft | 170 kts | 201° |
| 2026-05-04 09:39 | 43.16071 | -0.01556 | 2091 ft | 196 kts | 201° |
| 2026-05-04 09:39 | 43.14720 | -0.02257 | 2792 ft | 217 kts | 202° |
| 2026-05-04 09:39 | 43.13261 | -0.03023 | 3464 ft | 227 kts | 202° |
| 2026-05-04 09:39 | 43.11765 | -0.03814 | 4137 ft | 233 kts | 201° |
| 2026-05-04 09:40 | 43.10177 | -0.04205 | 4811 ft | 235 kts | 173° |
| 2026-05-04 09:40 | 43.08759 | -0.03343 | 5444 ft | 238 kts | 139° |
| 2026-05-04 09:40 | 43.07909 | -0.01392 | 6138 ft | 239 kts | 103° |
| 2026-05-04 09:40 | 43.08026 | 0.00827 | 6791 ft | 246 kts | 70° |
| 2026-05-04 09:41 | 43.09070 | 0.02736 | 7474 ft | 251 kts | 42° |
| 2026-05-04 09:42 | 43.19123 | 0.13564 | 12107 ft | 275 kts | 38° |
| 2026-05-04 09:43 | 43.20604 | 0.15145 | 12613 ft | 280 kts | 38° |
| 2026-05-04 09:43 | 43.22142 | 0.16787 | 13135 ft | 274 kts | 38° |
| 2026-05-04 09:43 | 43.23617 | 0.18352 | 13658 ft | 269 kts | 38° |
| 2026-05-04 09:43 | 43.25114 | 0.19941 | 14146 ft | 275 kts | 38° |
| 2026-05-04 09:44 | 43.26675 | 0.21600 | 14632 ft | 299 kts | 38° |
| 2026-05-04 09:44 | 43.28368 | 0.23405 | 15152 ft | 333 kts | 39° |
| 2026-05-04 09:44 | 43.29944 | 0.25945 | 15664 ft | 351 kts | 64° |
| 2026-05-04 09:46 | 43.37122 | 0.48154 | 19322 ft | 376 kts | 66° |
| 2026-05-04 09:46 | 43.38293 | 0.51409 | 19813 ft | 383 kts | 65° |
| 2026-05-04 09:46 | 43.39552 | 0.54655 | 20310 ft | 387 kts | 63° |
| 2026-05-04 09:47 | 43.40829 | 0.57940 | 20814 ft | 389 kts | 64° |
| 2026-05-04 09:47 | 43.42063 | 0.61240 | 21325 ft | 392 kts | 65° |
| 2026-05-04 09:49 | 43.50946 | 0.84865 | 24801 ft | 419 kts | 65° |
| 2026-05-04 09:49 | 43.52257 | 0.88371 | 25276 ft | 424 kts | 65° |
| 2026-05-04 09:49 | 43.53611 | 0.91984 | 25763 ft | 428 kts | 65° |
| 2026-05-04 09:51 | 43.61616 | 1.13481 | 26958 ft | 438 kts | 65° |
| 2026-05-04 09:51 | 43.62999 | 1.17217 | 26957 ft | 438 kts | 65° |
| 2026-05-04 09:51 | 43.64318 | 1.20782 | 26960 ft | 436 kts | 65° |
| 2026-05-04 09:51 | 43.65685 | 1.24469 | 26962 ft | 432 kts | 65° |
| 2026-05-04 09:52 | 43.67026 | 1.28230 | 26964 ft | 458 kts | 69° |
| 2026-05-04 09:52 | 43.67995 | 1.32594 | 26961 ft | 475 kts | 81° |
| 2026-05-04 09:52 | 43.68399 | 1.37070 | 26963 ft | 476 kts | 90° |
| 2026-05-04 09:52 | 43.68590 | 1.41276 | 26974 ft | 478 kts | 90° |
| 2026-05-04 09:53 | 43.68826 | 1.45871 | 26975 ft | 477 kts | 89° |
| 2026-05-04 09:53 | 43.69060 | 1.50417 | 26978 ft | 476 kts | 90° |
| 2026-05-04 09:53 | 43.69275 | 1.54930 | 26976 ft | 475 kts | 90° |
| 2026-05-04 09:53 | 43.69486 | 1.59405 | 26979 ft | 474 kts | 90° |
| 2026-05-04 09:54 | 43.69707 | 1.63941 | 26965 ft | 474 kts | 90° |
| 2026-05-04 09:54 | 43.69926 | 1.68489 | 26966 ft | 477 kts | 90° |
| 2026-05-04 09:54 | 43.70142 | 1.73083 | 26966 ft | 478 kts | 90° |
| 2026-05-04 09:54 | 43.70343 | 1.77407 | 26970 ft | 476 kts | 90° |
| 2026-05-04 09:55 | 43.70559 | 1.81980 | 26969 ft | 475 kts | 90° |
| 2026-05-04 09:55 | 43.70767 | 1.86531 | 26980 ft | 475 kts | 90° |
| 2026-05-04 09:55 | 43.70973 | 1.91105 | 26980 ft | 476 kts | 90° |
| 2026-05-04 09:55 | 43.71078 | 1.93394 | 26982 ft | 477 kts | 90° |
| 2026-05-04 09:56 | 43.71287 | 1.97979 | 26981 ft | 479 kts | 90° |
| 2026-05-04 09:56 | 43.71487 | 2.02511 | 26985 ft | 478 kts | 90° |
| 2026-05-04 09:56 | 43.71803 | 2.07016 | 26988 ft | 477 kts | 87° |
| 2026-05-04 09:56 | 43.72157 | 2.11579 | 26986 ft | 478 kts | 88° |
| 2026-05-04 09:57 | 43.72483 | 2.16152 | 26988 ft | 480 kts | 88° |
| 2026-05-04 09:57 | 43.72805 | 2.20770 | 26987 ft | 481 kts | 88° |
| 2026-05-04 09:57 | 43.73123 | 2.25084 | 26985 ft | 479 kts | 88° |
| 2026-05-04 09:57 | 43.73458 | 2.29622 | 26999 ft | 478 kts | 88° |
| 2026-05-04 09:58 | 43.73783 | 2.34208 | 26997 ft | 479 kts | 88° |
| 2026-05-04 09:58 | 43.74102 | 2.38805 | 26991 ft | 481 kts | 88° |
| 2026-05-04 09:58 | 43.74429 | 2.43390 | 26987 ft | 482 kts | 88° |
| 2026-05-04 10:00 | 43.76551 | 2.73988 | 26989 ft | 480 kts | 88° |
| 2026-05-04 10:00 | 43.76842 | 2.78370 | 26997 ft | 483 kts | 88° |
| 2026-05-04 10:02 | 43.73511 | 3.09467 | 26998 ft | 469 kts | 109° |
| 2026-05-04 10:04 | 43.68125 | 3.39975 | 27008 ft | 470 kts | 108° |
| 2026-05-04 10:04 | 43.67499 | 3.43508 | 27012 ft | 470 kts | 108° |
| 2026-05-04 10:04 | 43.66725 | 3.47837 | 27006 ft | 470 kts | 108° |
| 2026-05-04 10:04 | 43.66053 | 3.51587 | 27004 ft | 470 kts | 108° |
| 2026-05-04 10:05 | 43.65264 | 3.55993 | 27005 ft | 471 kts | 108° |
| 2026-05-04 10:05 | 43.64487 | 3.60398 | 27011 ft | 471 kts | 108° |
| 2026-05-04 10:05 | 43.63782 | 3.64393 | 27007 ft | 471 kts | 108° |
| 2026-05-04 10:05 | 43.62997 | 3.68796 | 27015 ft | 471 kts | 108° |
| 2026-05-04 10:06 | 43.62341 | 3.72442 | 27014 ft | 471 kts | 108° |
| 2026-05-04 10:06 | 43.61556 | 3.76829 | 27013 ft | 471 kts | 108° |
| 2026-05-04 10:06 | 43.60773 | 3.81207 | 27015 ft | 471 kts | 108° |
| 2026-05-04 10:08 | 43.54526 | 4.06039 | 27012 ft | 463 kts | 123° |
| 2026-05-04 10:08 | 43.53029 | 4.09945 | 27014 ft | 463 kts | 122° |
| 2026-05-04 10:08 | 43.51530 | 4.13848 | 27010 ft | 464 kts | 123° |
| 2026-05-04 10:08 | 43.49998 | 4.17796 | 27008 ft | 464 kts | 123° |
| 2026-05-04 10:09 | 43.48474 | 4.21721 | 27004 ft | 465 kts | 123° |
| 2026-05-04 10:09 | 43.46958 | 4.25637 | 27008 ft | 465 kts | 123° |
| 2026-05-04 10:09 | 43.45424 | 4.29586 | 27005 ft | 466 kts | 123° |
| 2026-05-04 10:09 | 43.43921 | 4.33455 | 27001 ft | 466 kts | 123° |
| 2026-05-04 10:10 | 43.42392 | 4.37374 | 26999 ft | 465 kts | 123° |
| 2026-05-04 10:10 | 43.40866 | 4.41292 | 27000 ft | 464 kts | 123° |
| 2026-05-04 10:10 | 43.39340 | 4.45198 | 27000 ft | 463 kts | 123° |
| 2026-05-04 10:10 | 43.37813 | 4.49098 | 26999 ft | 464 kts | 123° |
| 2026-05-04 10:11 | 43.36265 | 4.53001 | 27000 ft | 466 kts | 123° |
| 2026-05-04 10:11 | 43.35220 | 4.55607 | 27003 ft | 467 kts | 123° |
| 2026-05-04 10:11 | 43.33326 | 4.60359 | 27006 ft | 466 kts | 123° |
| 2026-05-04 10:11 | 43.31966 | 4.64404 | 27004 ft | 469 kts | 114° |
| 2026-05-04 10:12 | 43.31075 | 4.68602 | 27008 ft | 476 kts | 106° |
| 2026-05-04 10:12 | 43.30620 | 4.73161 | 27009 ft | 483 kts | 97° |
| 2026-05-04 10:12 | 43.30669 | 4.77772 | 27011 ft | 486 kts | 88° |
| 2026-05-04 10:12 | 43.31114 | 4.81692 | 27010 ft | 487 kts | 79° |
| 2026-05-04 10:13 | 43.31753 | 4.84816 | 27011 ft | 488 kts | 73° |
| 2026-05-04 10:13 | 43.32989 | 4.89148 | 27014 ft | 489 kts | 69° |
| 2026-05-04 10:13 | 43.34092 | 4.92934 | 27018 ft | 491 kts | 70° |
| 2026-05-04 10:13 | 43.35341 | 4.97291 | 27019 ft | 492 kts | 70° |
| 2026-05-04 10:14 | 43.36590 | 5.01616 | 27018 ft | 489 kts | 70° |
| 2026-05-04 10:14 | 43.37745 | 5.05596 | 27019 ft | 487 kts | 70° |
| 2026-05-04 10:16 | 43.46907 | 5.33897 | 27016 ft | 490 kts | 67° |
| 2026-05-04 10:16 | 43.48299 | 5.38173 | 27011 ft | 488 kts | 67° |
| 2026-05-04 10:16 | 43.49683 | 5.42429 | 27018 ft | 486 kts | 67° |
| 2026-05-04 10:16 | 43.50970 | 5.46725 | 27020 ft | 486 kts | 70° |
| 2026-05-04 10:17 | 43.52152 | 5.50999 | 27113 ft | 464 kts | 70° |
| 2026-05-04 10:17 | 43.53290 | 5.55053 | 27009 ft | 449 kts | 70° |
| 2026-05-04 10:19 | 43.57485 | 5.82929 | 23823 ft | 414 kts | 99° |
| 2026-05-04 10:19 | 43.56944 | 5.86781 | 23334 ft | 406 kts | 109° |
| 2026-05-04 10:19 | 43.55972 | 5.90355 | 22813 ft | 400 kts | 118° |
| 2026-05-04 10:19 | 43.54595 | 5.93642 | 22304 ft | 392 kts | 128° |
| 2026-05-04 10:20 | 43.52950 | 5.96570 | 21815 ft | 378 kts | 132° |
| 2026-05-04 10:20 | 43.51403 | 5.99277 | 21338 ft | 371 kts | 131° |
| 2026-05-04 10:20 | 43.49926 | 6.01879 | 20897 ft | 373 kts | 131° |
| 2026-05-04 10:20 | 43.48320 | 6.04687 | 20423 ft | 373 kts | 131° |
| 2026-05-04 10:21 | 43.46702 | 6.07507 | 19959 ft | 374 kts | 131° |
| 2026-05-04 10:21 | 43.45095 | 6.10309 | 19504 ft | 375 kts | 131° |
| 2026-05-04 10:21 | 43.43626 | 6.13276 | 19048 ft | 378 kts | 123° |
| 2026-05-04 10:21 | 43.42309 | 6.16416 | 18605 ft | 379 kts | 123° |
| 2026-05-04 10:22 | 43.39627 | 6.22470 | 17661 ft | 380 kts | 124° |
| 2026-05-04 10:22 | 43.38271 | 6.25585 | 17174 ft | 379 kts | 124° |
| 2026-05-04 10:22 | 43.36842 | 6.28627 | 16679 ft | 379 kts | 126° |
| 2026-05-04 10:23 | 43.35471 | 6.31545 | 16207 ft | 357 kts | 126° |
| 2026-05-04 10:23 | 43.34157 | 6.34374 | 15727 ft | 349 kts | 126° |
| 2026-05-04 10:25 | 43.27450 | 6.53805 | 12472 ft | 310 kts | 97° |
| 2026-05-04 10:25 | 43.27250 | 6.56694 | 11966 ft | 301 kts | 99° |
| 2026-05-04 10:25 | 43.27036 | 6.59556 | 11504 ft | 304 kts | 98° |
| 2026-05-04 10:25 | 43.26840 | 6.62449 | 11034 ft | 303 kts | 98° |
| 2026-05-04 10:26 | 43.26648 | 6.65320 | 10572 ft | 302 kts | 98° |
| 2026-05-04 10:26 | 43.26465 | 6.68209 | 10120 ft | 303 kts | 95° |
| 2026-05-04 10:26 | 43.26687 | 6.71099 | 9621 ft | 305 kts | 80° |
| 2026-05-04 10:26 | 43.27349 | 6.73732 | 9132 ft | 286 kts | 67° |
| 2026-05-04 10:27 | 43.28279 | 6.76048 | 8638 ft | 272 kts | 64° |
| 2026-05-04 10:27 | 43.29155 | 6.78277 | 8157 ft | 257 kts | 65° |
| 2026-05-04 10:27 | 43.29988 | 6.80398 | 7673 ft | 248 kts | 65° |
| 2026-05-04 10:27 | 43.30813 | 6.82485 | 7200 ft | 248 kts | 65° |
| 2026-05-04 10:28 | 43.31638 | 6.84574 | 6737 ft | 249 kts | 65° |
| 2026-05-04 10:28 | 43.32466 | 6.86661 | 6266 ft | 248 kts | 65° |
| 2026-05-04 10:28 | 43.33275 | 6.88717 | 5785 ft | 246 kts | 65° |
| 2026-05-04 10:28 | 43.34046 | 6.90661 | 5318 ft | 231 kts | 64° |
| 2026-05-04 10:29 | 43.34782 | 6.92524 | 4850 ft | 219 kts | 64° |
| 2026-05-04 10:29 | 43.35496 | 6.94344 | 4356 ft | 214 kts | 64° |
| 2026-05-04 10:29 | 43.36212 | 6.96130 | 3872 ft | 214 kts | 61° |
| 2026-05-04 10:29 | 43.37234 | 6.97629 | 3388 ft | 216 kts | 39° |
| 2026-05-04 10:30 | 43.38540 | 6.98632 | 2908 ft | 220 kts | 22° |
| 2026-05-04 10:30 | 43.40082 | 6.99034 | 2432 ft | 230 kts | 4° |
| 2026-05-04 10:30 | 43.41683 | 6.98740 | 2032 ft | 234 kts | 348° |
| 2026-05-04 10:30 | 43.43191 | 6.98280 | 2003 ft | 219 kts | 351° |
| 2026-05-04 10:31 | 43.44657 | 6.97891 | 1995 ft | 211 kts | 351° |
| 2026-05-04 10:31 | 43.46013 | 6.97510 | 1904 ft | 195 kts | 351° |
| 2026-05-04 10:32 | 43.51752 | 6.95616 | 549 ft | 123 kts | 353° |
| 2026-05-04 10:33 | 43.52611 | 6.95458 | 419 ft | 127 kts | 355° |
| 2026-05-04 10:33 | 43.53500 | 6.95311 | 219 ft | 131 kts | 353° |
| 2026-05-04 10:33 | 43.54419 | 6.95154 | 41 ft | 130 kts | 352° |
| 2026-05-04 10:33 | 43.55190 | 6.95015 | 12 ft | 64 kts | 353° |
| 2026-05-04 10:34 | 43.55329 | 6.94991 | 17 ft | 4 kts | 353° |
| 2026-05-04 10:34 | 43.55372 | 6.94998 | 18 ft | 7 kts | 32° |
| 2026-05-04 10:34 | 43.55390 | 6.95064 | 19 ft | 6 kts | 82° |
| 2026-05-04 10:34 | 43.55390 | 6.95068 | 19 ft | 3 kts | 82° |
| 2026-05-04 10:35 | 43.55369 | 6.95148 | 15 ft | 11 kts | 148° |
| 2026-05-04 10:35 | 43.55302 | 6.95163 | 14 ft | 13 kts | 170° |
| 2026-05-04 10:35 | 43.55213 | 6.95181 | 14 ft | 12 kts | 172° |
| 2026-05-04 10:35 | 43.55142 | 6.95194 | 13 ft | 10 kts | 173° |
| 2026-05-04 10:36 | 43.55053 | 6.95209 | 11 ft | 15 kts | 172° |
| 2026-05-04 10:36 | 43.54966 | 6.95224 | 11 ft | 10 kts | 172° |
| 2026-05-04 10:36 | 43.54892 | 6.95237 | 13 ft | 11 kts | 173° |
| 2026-05-04 10:36 | 43.54816 | 6.95251 | 15 ft | 11 kts | 174° |
| 2026-05-04 10:37 | 43.54747 | 6.95262 | 16 ft | 4 kts | 171° |
| 2026-05-04 10:37 | 43.54707 | 6.95293 | 15 ft | 5 kts | 130° |
| 2026-05-04 10:37 | 43.54693 | 6.95326 | 15 ft | 4 kts | 122° |
| 2026-05-04 10:37 | 43.54673 | 6.95338 | 15 ft | 0 kts | 171° |